Time;durP1;ratioP1;P1;durP2;ratioP2;P2;SDS_P1;SDS_P2;PMS_P1;PMS_P2;Temp;Humidity;BMP_temperature;BMP_pressure;BME280_temperature;BME280_humidity;BME280_pressure;Samples;Min_cycle;Max_cycle;Signal;HPM_P1;HPM_P2
2021/07/15 00:01:34;;;;;;;0.60;0.30;;;17.40;99.90;;;;;;5092138;28;20202;-71
2021/07/15 00:04:02;;;;;;;0.30;0.20;;;17.40;99.90;;;;;;5092651;28;20208;-71
2021/07/15 00:06:29;;;;;;;0.60;0.50;;;17.40;99.90;;;;;;5092738;28;20202;-71
2021/07/15 00:08:57;;;;;;;0.40;0.28;;;17.30;99.90;;;;;;5092226;28;20225;-72
2021/07/15 00:11:27;;;;;;;0.30;0.20;;;17.30;99.90;;;;;;5092285;28;20202;-71
2021/07/15 00:13:55;;;;;;;0.30;0.20;;;17.20;99.90;;;;;;5092347;28;20197;-71
2021/07/15 00:16:24;;;;;;;0.40;0.30;;;17.30;99.90;;;;;;5092276;28;20664;-70
2021/07/15 00:18:52;;;;;;;0.30;0.20;;;17.30;99.90;;;;;;5092165;28;20696;-71
2021/07/15 00:21:23;;;;;;;0.57;0.30;;;17.30;99.90;;;;;;5091599;28;20208;-71
2021/07/15 00:23:50;;;;;;;0.30;0.30;;;17.30;99.90;;;;;;5092553;28;20202;-71
2021/07/15 00:26:18;;;;;;;0.30;0.20;;;17.30;99.90;;;;;;5092460;28;20206;-70
2021/07/15 00:28:45;;;;;;;0.30;0.30;;;17.30;99.90;;;;;;5092132;28;20210;-69
2021/07/15 00:31:12;;;;;;;0.30;0.30;;;17.20;99.90;;;;;;5092438;28;20754;-71
2021/07/15 00:33:39;;;;;;;0.30;0.20;;;17.20;99.90;;;;;;5092165;28;20197;-72
2021/07/15 00:36:06;;;;;;;0.30;0.20;;;17.10;99.90;;;;;;5092053;28;20208;-72
2021/07/15 00:38:34;;;;;;;0.30;0.20;;;17.00;99.90;;;;;;5092130;28;20652;-72
2021/07/15 00:41:01;;;;;;;0.30;0.20;;;16.90;99.90;;;;;;5092095;28;20204;-73
2021/07/15 00:43:28;;;;;;;0.30;0.22;;;16.90;99.90;;;;;;5093034;28;20205;-74
2021/07/15 00:45:55;;;;;;;0.30;0.25;;;16.80;99.90;;;;;;5096288;28;20201;-74
2021/07/15 00:48:22;;;;;;;0.50;0.40;;;16.80;99.90;;;;;;5096083;28;20567;-72
2021/07/15 00:50:49;;;;;;;0.50;0.30;;;16.70;99.90;;;;;;5095971;28;20209;-74
2021/07/15 00:53:18;;;;;;;0.30;0.20;;;16.70;99.90;;;;;;5096003;28;20208;-74
2021/07/15 00:55:47;;;;;;;0.30;0.20;;;16.60;99.90;;;;;;5096124;28;20202;-74
2021/07/15 00:58:16;;;;;;;0.40;0.22;;;16.60;99.90;;;;;;5096026;28;20678;-74
2021/07/15 01:00:50;;;;;;;0.30;0.20;;;16.60;99.90;;;;;;5095860;28;20251;-72
2021/07/15 01:03:18;;;;;;;0.40;0.22;;;16.60;99.90;;;;;;5095811;28;20293;-71
2021/07/15 01:05:47;;;;;;;2.53;0.38;;;16.60;99.90;;;;;;5095848;28;20212;-73
2021/07/15 01:08:15;;;;;;;0.30;0.28;;;16.50;99.90;;;;;;5095819;28;20208;-73
2021/07/15 01:10:45;;;;;;;0.30;0.28;;;16.50;99.90;;;;;;5095632;28;20586;-72
2021/07/15 01:13:24;;;;;;;0.30;0.22;;;16.60;99.90;;;;;;5095711;28;20206;-74
2021/07/15 01:15:59;;;;;;;0.40;0.20;;;16.60;99.90;;;;;;5095926;28;20208;-74
2021/07/15 01:18:53;;;;;;;0.30;0.30;;;16.60;99.90;;;;;;5095684;28;20203;-76
2021/07/15 01:21:53;;;;;;;0.40;0.40;;;16.60;99.90;;;;;;5095053;28;20718;-75
2021/07/15 01:24:45;;;;;;;0.30;0.20;;;16.50;99.90;;;;;;5074379;28;20269;-70
2021/07/15 01:27:35;;;;;;;0.40;0.30;;;16.50;99.90;;;;;;5095544;28;20217;-75
2021/07/15 01:30:08;;;;;;;0.30;0.30;;;16.60;99.90;;;;;;5095050;28;20232;-75
2021/07/15 01:32:43;;;;;;;0.40;0.28;;;16.60;99.90;;;;;;5095591;28;20202;-73
2021/07/15 01:35:12;;;;;;;0.50;0.30;;;16.60;99.90;;;;;;5095426;28;20208;-75
2021/07/15 01:37:42;;;;;;;0.40;0.30;;;16.60;99.90;;;;;;5095278;28;20578;-75
2021/07/15 01:40:12;;;;;;;0.40;0.30;;;16.50;99.90;;;;;;5094920;28;20226;-74
2021/07/15 01:42:39;;;;;;;0.30;0.20;;;16.50;99.90;;;;;;5094938;28;20579;-72
2021/07/15 01:45:09;;;;;;;0.57;0.28;;;16.50;99.90;;;;;;5095332;28;20210;-72
2021/07/15 01:47:37;;;;;;;0.30;0.30;;;16.40;99.90;;;;;;5095135;28;20206;-71
2021/07/15 01:50:06;;;;;;;0.30;0.28;;;16.30;99.90;;;;;;5094850;28;20230;-71
2021/07/15 01:52:33;;;;;;;0.30;0.30;;;16.30;99.90;;;;;;5095001;28;20287;-71
2021/07/15 01:55:00;;;;;;;0.40;0.28;;;16.40;99.90;;;;;;5094607;28;20205;-72
2021/07/15 01:57:28;;;;;;;0.30;0.30;;;16.30;99.90;;;;;;5095928;28;20551;-70
2021/07/15 01:59:58;;;;;;;0.30;0.30;;;16.30;99.90;;;;;;5095991;28;20324;-69
2021/07/15 02:02:27;;;;;;;0.50;0.30;;;16.40;99.90;;;;;;5096483;28;20533;-70
2021/07/15 02:04:55;;;;;;;0.30;0.20;;;16.30;99.90;;;;;;5096571;28;20291;-70
2021/07/15 02:07:24;;;;;;;0.30;0.20;;;16.40;99.90;;;;;;5096611;28;20295;-70
2021/07/15 02:09:52;;;;;;;0.30;0.30;;;16.40;99.90;;;;;;5095655;28;20223;-69
2021/07/15 02:12:20;;;;;;;0.30;0.20;;;16.40;99.90;;;;;;5096204;28;20205;-70
2021/07/15 02:14:49;;;;;;;0.30;0.30;;;16.30;99.90;;;;;;5096087;28;20212;-70
2021/07/15 02:17:16;;;;;;;0.30;0.30;;;16.40;99.90;;;;;;5096294;28;20206;-70
2021/07/15 02:19:46;;;;;;;0.30;0.20;;;16.40;99.90;;;;;;5096185;28;20225;-70
2021/07/15 02:22:14;;;;;;;0.30;0.20;;;16.30;99.90;;;;;;5096181;28;20642;-70
2021/07/15 02:24:46;;;;;;;0.30;0.20;;;16.30;99.90;;;;;;5095978;28;20558;-70
2021/07/15 02:27:14;;;;;;;0.43;0.22;;;16.30;99.90;;;;;;5095835;28;20640;-70
2021/07/15 02:29:41;;;;;;;0.30;0.20;;;16.40;99.90;;;;;;5095358;28;20726;-70
2021/07/15 02:32:10;;;;;;;0.30;0.20;;;16.40;99.90;;;;;;5096075;28;20202;-70
2021/07/15 02:34:43;;;;;;;0.30;0.30;;;16.40;99.90;;;;;;5096377;28;20209;-70
2021/07/15 02:37:13;;;;;;;0.30;0.20;;;16.50;99.90;;;;;;5095538;28;20201;-70
2021/07/15 02:39:40;;;;;;;0.50;0.40;;;16.50;99.90;;;;;;5095499;28;20647;-70
2021/07/15 02:42:07;;;;;;;0.30;0.20;;;16.40;99.90;;;;;;5095639;28;20218;-70
2021/07/15 02:44:35;;;;;;;0.30;0.20;;;16.40;99.90;;;;;;5095692;28;20205;-70
2021/07/15 02:47:02;;;;;;;0.40;0.30;;;16.30;99.90;;;;;;5095854;28;20212;-70
2021/07/15 02:49:29;;;;;;;0.30;0.20;;;16.30;99.90;;;;;;5095481;28;20225;-70
2021/07/15 02:51:56;;;;;;;0.30;0.20;;;16.40;99.90;;;;;;5095112;28;20549;-70
2021/07/15 02:54:25;;;;;;;0.30;0.20;;;16.60;99.90;;;;;;5095282;28;20233;-70
2021/07/15 02:56:59;;;;;;;0.30;0.20;;;16.60;99.90;;;;;;5095046;28;20572;-70
2021/07/15 02:59:31;;;;;;;0.30;0.20;;;16.60;99.90;;;;;;5095108;28;20651;-70
2021/07/15 03:02:06;;;;;;;0.30;0.20;;;16.60;99.90;;;;;;5094849;28;20202;-70
2021/07/15 03:04:39;;;;;;;0.30;0.20;;;16.60;99.90;;;;;;5095125;28;20276;-70
2021/07/15 03:07:09;;;;;;;0.30;0.20;;;16.60;99.90;;;;;;5094440;28;20189;-70
2021/07/15 03:09:40;;;;;;;0.30;0.20;;;16.60;99.90;;;;;;5094818;28;20271;-70
2021/07/15 03:12:13;;;;;;;0.40;0.20;;;16.50;99.90;;;;;;5094830;28;20209;-70
2021/07/15 03:14:43;;;;;;;0.35;0.22;;;16.60;99.90;;;;;;5095012;28;20208;-70
2021/07/15 03:17:13;;;;;;;0.30;0.20;;;16.70;99.90;;;;;;5094896;28;20555;-70
2021/07/15 03:19:45;;;;;;;0.30;0.20;;;16.70;99.90;;;;;;5094866;28;20229;-70
2021/07/15 03:22:13;;;;;;;0.30;0.20;;;16.70;99.90;;;;;;5095325;28;20206;-70
2021/07/15 03:24:46;;;;;;;0.38;0.30;;;16.60;99.90;;;;;;5094371;28;20208;-69
2021/07/15 03:27:14;;;;;;;0.30;0.20;;;16.60;99.90;;;;;;5094864;28;20575;-70
2021/07/15 03:29:44;;;;;;;0.30;0.20;;;16.50;99.90;;;;;;5094481;28;20271;-70
2021/07/15 03:32:13;;;;;;;0.30;0.20;;;16.50;99.90;;;;;;5094609;28;20202;-70
2021/07/15 03:34:40;;;;;;;0.30;0.20;;;16.70;99.90;;;;;;5094363;28;20739;-70
2021/07/15 03:37:09;;;;;;;0.30;0.20;;;16.70;99.90;;;;;;5094861;28;20557;-70
2021/07/15 03:39:36;;;;;;;0.65;0.40;;;16.90;99.90;;;;;;5094147;28;20222;-70
2021/07/15 03:42:05;;;;;;;0.30;0.22;;;16.80;99.90;;;;;;5094380;28;20542;-70
2021/07/15 03:44:32;;;;;;;0.40;0.20;;;16.70;99.90;;;;;;5094625;28;20209;-70
2021/07/15 03:46:59;;;;;;;0.30;0.20;;;16.70;99.90;;;;;;5094670;28;20224;-70
2021/07/15 03:49:28;;;;;;;0.40;0.20;;;16.70;99.90;;;;;;5094793;28;20222;-70
2021/07/15 03:51:55;;;;;;;0.50;0.25;;;16.70;99.90;;;;;;5094131;28;20255;-70
2021/07/15 03:54:23;;;;;;;0.30;0.20;;;16.80;99.90;;;;;;5094249;28;20198;-70
2021/07/15 03:56:51;;;;;;;0.30;0.25;;;16.80;99.90;;;;;;5094427;28;20545;-70
2021/07/15 03:59:21;;;;;;;0.30;0.20;;;16.80;99.90;;;;;;5093766;28;20734;-70
2021/07/15 04:01:58;;;;;;;0.50;0.47;;;16.80;99.90;;;;;;5093999;28;20206;-70
2021/07/15 04:04:29;;;;;;;0.50;0.30;;;16.80;99.90;;;;;;5094817;28;20671;-70
2021/07/15 04:06:58;;;;;;;0.30;0.20;;;16.90;99.90;;;;;;5093781;28;20190;-70
2021/07/15 04:09:26;;;;;;;0.30;0.20;;;16.90;99.90;;;;;;5093726;28;20305;-70
2021/07/15 04:11:54;;;;;;;0.40;0.30;;;16.80;99.90;;;;;;5094097;28;20213;-70
2021/07/15 04:14:33;;;;;;;0.38;0.38;;;16.90;99.90;;;;;;5094298;28;20274;-70
2021/07/15 04:17:06;;;;;;;0.30;0.20;;;16.80;99.90;;;;;;5093943;28;20551;-70
2021/07/15 04:19:34;;;;;;;0.43;0.22;;;16.90;99.90;;;;;;5093812;28;20590;-70
2021/07/15 04:22:04;;;;;;;0.30;0.20;;;16.80;99.90;;;;;;5093924;28;20201;-70
2021/07/15 04:24:32;;;;;;;0.40;0.30;;;16.80;99.90;;;;;;5094151;28;20209;-70
2021/07/15 04:27:00;;;;;;;0.40;0.25;;;16.90;99.90;;;;;;5094376;28;20202;-70
2021/07/15 04:29:30;;;;;;;0.40;0.30;;;16.90;99.90;;;;;;5093442;28;20229;-70
2021/07/15 04:32:05;;;;;;;0.30;0.22;;;17.00;99.90;;;;;;5093780;28;20194;-70
2021/07/15 04:34:34;;;;;;;0.40;0.28;;;17.00;99.90;;;;;;5094024;28;20212;-70
2021/07/15 04:37:02;;;;;;;0.40;0.40;;;17.00;99.90;;;;;;5093926;28;20644;-70
2021/07/15 04:39:29;;;;;;;0.50;0.40;;;17.00;99.90;;;;;;5093997;28;20222;-70
2021/07/15 04:42:00;;;;;;;0.40;0.30;;;17.10;99.90;;;;;;5093559;28;20210;-70
2021/07/15 04:44:31;;;;;;;0.50;0.20;;;17.20;99.90;;;;;;5093920;28;20529;-70
2021/07/15 04:46:58;;;;;;;0.30;0.30;;;17.20;99.90;;;;;;5093856;28;20202;-70
2021/07/15 04:49:26;;;;;;;0.40;0.30;;;17.20;99.90;;;;;;5093546;28;20576;-70
2021/07/15 04:51:54;;;;;;;0.57;0.40;;;17.20;99.90;;;;;;5093868;28;20529;-70
2021/07/15 04:54:23;;;;;;;0.30;0.20;;;17.10;99.90;;;;;;5094033;28;20202;-70
2021/07/15 04:56:50;;;;;;;4.95;0.43;;;17.20;99.90;;;;;;5093676;28;20208;-70
2021/07/15 04:59:18;;;;;;;0.60;0.55;;;17.20;99.90;;;;;;5093339;28;20562;-70
2021/07/15 05:01:46;;;;;;;0.38;0.22;;;17.20;99.90;;;;;;5093030;28;20222;-70
2021/07/15 05:04:13;;;;;;;0.40;0.40;;;17.30;99.90;;;;;;5093802;28;20212;-70
2021/07/15 05:06:39;;;;;;;0.40;0.40;;;17.30;99.90;;;;;;5093403;28;20309;-70
2021/07/15 05:09:06;;;;;;;0.30;0.30;;;17.30;99.90;;;;;;5093311;28;20218;-70
2021/07/15 05:11:33;;;;;;;0.47;0.30;;;17.30;99.90;;;;;;5093316;28;20288;-70
2021/07/15 05:14:02;;;;;;;0.40;0.40;;;17.30;99.90;;;;;;5093557;28;20198;-70
2021/07/15 05:16:29;;;;;;;2.25;1.00;;;17.30;99.90;;;;;;5093606;28;20293;-70
2021/07/15 05:18:57;;;;;;;1.10;0.52;;;17.30;99.90;;;;;;5093302;28;20629;-70
2021/07/15 05:21:24;;;;;;;0.40;0.40;;;17.40;99.90;;;;;;5093336;28;20222;-70
2021/07/15 05:23:51;;;;;;;1.20;0.40;;;17.40;99.90;;;;;;5093595;28;20198;-70
2021/07/15 05:26:18;;;;;;;0.40;0.40;;;17.30;99.90;;;;;;5093450;28;20198;-70
2021/07/15 05:28:46;;;;;;;0.40;0.40;;;17.30;99.90;;;;;;5093160;28;20228;-70
2021/07/15 05:31:13;;;;;;;0.47;0.30;;;17.40;99.90;;;;;;5096802;28;20526;-70
2021/07/15 05:33:40;;;;;;;0.35;0.35;;;17.30;99.90;;;;;;5097229;28;20202;-70
2021/07/15 05:36:10;;;;;;;0.40;0.40;;;17.40;99.90;;;;;;5096825;28;20553;-70
2021/07/15 05:38:38;;;;;;;0.50;0.40;;;17.40;99.90;;;;;;5096769;28;20284;-70
2021/07/15 05:41:05;;;;;;;0.30;0.30;;;17.40;99.90;;;;;;5096738;28;20226;-70
2021/07/15 05:43:32;;;;;;;0.30;0.20;;;17.40;99.90;;;;;;5096593;28;20231;-70
2021/07/15 05:45:59;;;;;;;0.30;0.20;;;17.50;99.90;;;;;;5097020;28;20204;-70
2021/07/15 05:48:26;;;;;;;0.30;0.30;;;17.50;99.90;;;;;;5096955;28;20208;-70
2021/07/15 05:50:53;;;;;;;0.30;0.20;;;17.40;99.90;;;;;;5096521;28;20292;-70
2021/07/15 05:53:21;;;;;;;1.30;0.20;;;17.50;99.90;;;;;;5096588;28;20652;-70
2021/07/15 05:55:48;;;;;;;0.30;0.20;;;17.50;99.90;;;;;;5096573;28;20293;-70
2021/07/15 05:58:16;;;;;;;0.40;0.40;;;17.60;99.90;;;;;;5096705;28;20208;-70
2021/07/15 06:00:42;;;;;;;0.30;0.20;;;17.60;99.90;;;;;;5096555;28;20217;-69
2021/07/15 06:03:09;;;;;;;0.30;0.20;;;17.70;99.90;;;;;;5096270;28;20209;-70
2021/07/15 06:05:36;;;;;;;0.40;0.30;;;17.70;99.90;;;;;;5096309;28;20206;-70
2021/07/15 06:08:03;;;;;;;0.30;0.30;;;17.70;99.90;;;;;;5096282;28;20300;-70
2021/07/15 06:10:31;;;;;;;0.30;0.30;;;17.80;99.90;;;;;;5096404;28;20223;-70
2021/07/15 06:12:59;;;;;;;0.30;0.20;;;17.90;99.90;;;;;;5096468;28;20719;-70
2021/07/15 06:15:26;;;;;;;0.30;0.20;;;17.90;99.90;;;;;;5096502;28;20698;-70
2021/07/15 06:17:53;;;;;;;0.30;0.20;;;17.80;99.90;;;;;;5095856;28;20292;-70
2021/07/15 06:20:20;;;;;;;0.50;0.20;;;17.70;99.90;;;;;;5095840;28;20310;-70
2021/07/15 06:22:47;;;;;;;0.30;0.20;;;17.70;99.90;;;;;;5095973;28;20201;-70
2021/07/15 06:25:14;;;;;;;0.30;0.20;;;17.70;99.90;;;;;;5096345;28;20719;-70
2021/07/15 06:27:44;;;;;;;0.40;0.20;;;17.90;99.90;;;;;;5096237;28;20329;-70
2021/07/15 06:30:12;;;;;;;2.15;1.52;;;17.90;99.90;;;;;;5095307;28;20233;-70
2021/07/15 06:32:39;;;;;;;1.63;1.00;;;18.00;99.90;;;;;;5096107;28;20205;-70
2021/07/15 06:35:08;;;;;;;0.60;0.47;;;18.10;99.90;;;;;;5095958;28;20544;-70
2021/07/15 06:37:39;;;;;;;0.98;0.40;;;18.20;99.90;;;;;;5095918;28;20206;-70
2021/07/15 06:40:08;;;;;;;0.30;0.20;;;18.40;99.90;;;;;;5095143;28;20218;-70
2021/07/15 06:42:36;;;;;;;0.65;0.35;;;18.50;99.90;;;;;;5095017;28;20204;-70
2021/07/15 06:45:06;;;;;;;0.30;0.30;;;18.50;99.90;;;;;;5095693;28;20204;-70
2021/07/15 06:47:37;;;;;;;1.90;1.50;;;18.60;99.90;;;;;;5095510;28;20675;-70
2021/07/15 06:50:04;;;;;;;0.80;0.70;;;18.70;99.90;;;;;;5095618;28;20236;-70
2021/07/15 06:52:31;;;;;;;0.50;0.40;;;18.80;99.90;;;;;;5095796;28;20799;-70
2021/07/15 06:55:01;;;;;;;0.30;0.30;;;18.80;99.90;;;;;;5095846;28;20290;-70
2021/07/15 06:57:28;;;;;;;0.50;0.30;;;18.80;99.90;;;;;;5095408;28;20452;-70
2021/07/15 06:59:55;;;;;;;0.70;0.30;;;18.90;99.90;;;;;;5095317;28;20803;-70
2021/07/15 07:02:23;;;;;;;0.40;0.30;;;18.90;99.90;;;;;;5094862;28;20480;-70
2021/07/15 07:04:50;;;;;;;0.30;0.20;;;18.80;99.90;;;;;;5095550;28;20443;-70
2021/07/15 07:07:17;;;;;;;0.55;0.45;;;18.70;99.90;;;;;;5095484;28;20535;-70
2021/07/15 07:09:43;;;;;;;0.30;0.30;;;18.60;99.90;;;;;;5094717;28;20708;-70
2021/07/15 07:12:10;;;;;;;0.33;0.30;;;18.50;99.90;;;;;;5094650;28;20293;-70
2021/07/15 07:14:37;;;;;;;0.30;0.28;;;18.60;99.90;;;;;;5094914;28;20944;-70
2021/07/15 07:17:04;;;;;;;3.88;2.30;;;18.50;99.90;;;;;;5094895;28;20396;-70
2021/07/15 07:19:33;;;;;;;0.40;0.40;;;18.60;99.90;;;;;;5094675;28;20233;-70
2021/07/15 07:21:59;;;;;;;0.40;0.40;;;18.60;99.90;;;;;;5094948;28;20522;-70
2021/07/15 07:24:26;;;;;;;0.40;0.22;;;18.60;99.90;;;;;;5094731;28;20202;-70
2021/07/15 07:26:53;;;;;;;0.30;0.30;;;18.70;99.90;;;;;;5094811;28;20214;-70
2021/07/15 07:29:20;;;;;;;0.30;0.20;;;18.70;99.90;;;;;;5094381;28;20233;-70
2021/07/15 07:31:46;;;;;;;0.30;0.20;;;18.70;99.90;;;;;;5094383;28;20306;-70
2021/07/15 07:34:13;;;;;;;0.95;0.20;;;18.80;99.90;;;;;;5094496;28;20203;-70
2021/07/15 07:36:42;;;;;;;0.30;0.27;;;18.90;99.90;;;;;;5094947;28;20318;-70
2021/07/15 07:39:08;;;;;;;0.40;0.30;;;18.80;99.90;;;;;;5094501;28;20568;-70
2021/07/15 07:41:35;;;;;;;0.30;0.30;;;18.80;99.90;;;;;;5094318;28;20234;-70
2021/07/15 07:44:02;;;;;;;0.40;0.30;;;18.70;99.90;;;;;;5094548;28;20449;-70
2021/07/15 07:46:29;;;;;;;0.43;0.30;;;18.80;99.90;;;;;;5094807;28;20202;-70
2021/07/15 07:48:56;;;;;;;0.30;0.23;;;18.80;99.90;;;;;;5094412;28;20838;-70
2021/07/15 07:51:23;;;;;;;0.30;0.30;;;18.80;99.90;;;;;;5094106;28;20436;-70
2021/07/15 07:53:52;;;;;;;1.30;0.30;;;18.80;99.90;;;;;;5093772;28;20533;-70
2021/07/15 07:56:19;;;;;;;0.50;0.50;;;18.70;99.90;;;;;;5094370;28;20207;-70
2021/07/15 07:58:46;;;;;;;1.08;0.25;;;18.80;99.90;;;;;;5088139;28;20474;-70
2021/07/15 08:01:12;;;;;;;0.93;0.40;;;18.70;99.90;;;;;;5081172;28;20224;-72
2021/07/15 08:03:39;;;;;;;0.30;0.30;;;18.70;99.90;;;;;;5073080;28;20680;-71
2021/07/15 08:06:06;;;;;;;0.40;0.20;;;18.70;99.90;;;;;;5072886;28;20295;-71
2021/07/15 08:08:35;;;;;;;0.35;0.35;;;18.60;99.90;;;;;;5072932;28;20223;-72
2021/07/15 08:11:04;;;;;;;0.30;0.20;;;18.60;99.90;;;;;;5072500;28;20278;-71
2021/07/15 08:13:30;;;;;;;0.40;0.33;;;18.70;99.90;;;;;;5072576;28;20199;-72
2021/07/15 08:15:57;;;;;;;0.50;0.23;;;18.90;99.90;;;;;;5072376;28;20461;-72
2021/07/15 08:18:24;;;;;;;0.57;0.30;;;19.10;99.90;;;;;;5072688;28;20457;-72
2021/07/15 08:20:51;;;;;;;0.40;0.40;;;19.20;99.90;;;;;;5072253;28;20479;-72
2021/07/15 08:23:18;;;;;;;0.40;0.40;;;19.40;99.90;;;;;;5072395;28;20458;-71
2021/07/15 08:25:45;;;;;;;0.40;0.40;;;19.50;99.90;;;;;;5072663;28;20812;-71
2021/07/15 08:28:13;;;;;;;0.30;0.20;;;19.50;99.90;;;;;;5073885;28;20533;-71
2021/07/15 08:30:40;;;;;;;0.30;0.30;;;19.50;99.90;;;;;;5073493;28;20906;-71
2021/07/15 08:33:07;;;;;;;0.40;0.37;;;19.40;99.90;;;;;;5074050;28;20552;-71
2021/07/15 08:35:36;;;;;;;0.30;0.27;;;19.30;99.90;;;;;;5073815;28;20468;-71
2021/07/15 08:38:03;;;;;;;0.37;0.37;;;19.30;99.90;;;;;;5073850;28;20553;-71
2021/07/15 08:40:30;;;;;;;0.30;0.30;;;19.40;99.90;;;;;;5073596;28;20473;-71
2021/07/15 08:42:57;;;;;;;0.43;0.30;;;19.40;99.90;;;;;;5073636;28;20489;-71
2021/07/15 08:45:26;;;;;;;0.40;0.30;;;19.40;99.90;;;;;;5073965;28;20443;-71
2021/07/15 08:47:56;;;;;;;0.47;0.47;;;19.50;99.90;;;;;;5073688;28;20443;-71
2021/07/15 08:50:23;;;;;;;0.50;0.50;;;19.50;99.90;;;;;;5073809;28;20462;-71
2021/07/15 08:52:50;;;;;;;0.40;0.40;;;19.30;99.90;;;;;;5073648;28;20444;-71
2021/07/15 08:57:58;;;;;;;0.40;0.40;;;19.10;99.90;;;;;;5050736;28;20473;-71
2021/07/15 09:00:26;;;;;;;0.60;0.60;;;18.90;99.90;;;;;;5072874;28;20458;-71
2021/07/15 09:02:52;;;;;;;0.40;0.30;;;18.80;99.90;;;;;;5073515;28;20234;-71
2021/07/15 09:05:20;;;;;;;0.50;0.40;;;18.90;99.90;;;;;;5076013;28;20533;-71
2021/07/15 09:07:51;;;;;;;0.60;0.60;;;19.00;99.90;;;;;;5077506;28;20442;-71
2021/07/15 09:10:18;;;;;;;0.50;0.50;;;19.20;99.90;;;;;;5077317;28;20840;-71
2021/07/15 09:12:45;;;;;;;0.40;0.33;;;19.50;99.90;;;;;;5076965;28;20443;-71
2021/07/15 09:15:14;;;;;;;0.40;0.30;;;19.60;99.90;;;;;;5077184;28;20543;-71
2021/07/15 09:17:42;;;;;;;0.40;0.40;;;19.70;99.90;;;;;;5077264;28;20536;-71
2021/07/15 09:20:15;;;;;;;0.50;0.50;;;19.90;99.90;;;;;;5076523;28;20468;-71
2021/07/15 09:22:59;;;;;;;0.57;0.50;;;20.00;99.90;;;;;;5077349;28;20566;-71
2021/07/15 09:25:27;;;;;;;0.67;0.40;;;20.10;99.90;;;;;;5076787;28;20513;-71
2021/07/15 09:27:54;;;;;;;0.40;0.33;;;20.10;99.90;;;;;;5076886;28;20447;-72
2021/07/15 09:30:21;;;;;;;0.50;0.50;;;20.10;99.90;;;;;;5076782;28;20479;-71
2021/07/15 09:32:54;;;;;;;0.60;0.60;;;20.10;99.90;;;;;;5076886;28;20437;-71
2021/07/15 09:35:30;;;;;;;0.40;0.30;;;20.00;99.90;;;;;;5077239;28;20535;-72
2021/07/15 09:38:09;;;;;;;1.37;0.40;;;19.80;99.90;;;;;;5076785;28;20450;-71
2021/07/15 09:40:40;;;;;;;0.40;0.37;;;19.80;99.90;;;;;;5076707;28;20474;-71
2021/07/15 09:43:18;;;;;;;0.57;0.57;;;19.60;99.90;;;;;;5077060;28;20486;-72
2021/07/15 09:45:45;;;;;;;0.40;0.40;;;19.60;99.90;;;;;;5076857;28;20533;-71
2021/07/15 09:48:19;;;;;;;0.70;0.50;;;19.70;99.90;;;;;;5076393;28;20444;-71
2021/07/15 09:50:46;;;;;;;0.70;0.50;;;19.80;99.90;;;;;;5076477;28;20470;-72
2021/07/15 09:53:19;;;;;;;0.50;0.50;;;19.80;99.90;;;;;;5076435;28;20936;-72
2021/07/15 09:55:46;;;;;;;0.60;0.50;;;19.90;99.90;;;;;;5076791;28;20446;-71
2021/07/15 09:58:14;;;;;;;0.30;0.30;;;19.90;99.90;;;;;;5076616;28;20529;-71
2021/07/15 10:00:43;;;;;;;2.50;1.93;;;19.80;99.90;;;;;;5075839;28;20984;-71
2021/07/15 10:03:12;;;;;;;2.73;2.20;;;20.00;99.90;;;;;;5076135;28;20566;-71
2021/07/15 10:05:50;;;;;;;0.70;0.70;;;20.00;99.90;;;;;;5076105;28;20531;-72
2021/07/15 10:08:25;;;;;;;0.50;0.50;;;20.00;99.90;;;;;;5076390;28;20483;-71
2021/07/15 10:10:52;;;;;;;0.40;0.40;;;20.10;99.90;;;;;;5076310;28;20431;-71
2021/07/15 10:13:21;;;;;;;0.50;0.50;;;20.10;99.90;;;;;;5076086;28;20450;-72
2021/07/15 10:15:50;;;;;;;0.40;0.40;;;20.00;99.90;;;;;;5076053;28;20859;-72
2021/07/15 10:18:39;;;;;;;0.43;0.43;;;19.90;99.90;;;;;;5076115;28;20447;-71
2021/07/15 10:21:09;;;;;;;0.40;0.40;;;19.90;99.90;;;;;;5075764;28;20430;-71
2021/07/15 10:23:39;;;;;;;0.53;0.53;;;20.10;99.90;;;;;;5076276;28;20450;-72
2021/07/15 10:26:08;;;;;;;0.50;0.50;;;20.20;99.90;;;;;;5075865;28;20547;-72
2021/07/15 10:28:37;;;;;;;0.50;0.50;;;20.60;99.90;;;;;;5075326;28;20968;-73
2021/07/15 10:31:05;;;;;;;0.53;0.53;;;20.90;99.90;;;;;;5075530;28;20432;-72
2021/07/15 10:33:32;;;;;;;0.40;0.40;;;20.90;99.90;;;;;;5076181;28;20454;-71
2021/07/15 10:36:00;;;;;;;0.30;0.30;;;21.00;99.90;;;;;;5075706;28;20942;-71
2021/07/15 10:38:31;;;;;;;0.63;0.63;;;21.00;99.90;;;;;;5075763;28;20433;-72
2021/07/15 10:40:58;;;;;;;0.83;0.60;;;21.10;99.90;;;;;;5075818;28;20444;-71
2021/07/15 10:43:26;;;;;;;0.50;0.50;;;21.00;99.90;;;;;;5075753;28;20495;-72
2021/07/15 10:45:57;;;;;;;0.40;0.40;;;20.80;99.90;;;;;;5075876;28;20443;-72
2021/07/15 10:48:25;;;;;;;0.40;0.40;;;20.40;99.90;;;;;;5075415;28;20854;-72
2021/07/15 10:50:52;;;;;;;0.53;0.53;;;20.50;99.90;;;;;;5075361;28;20790;-71
2021/07/15 10:53:20;;;;;;;0.60;0.60;;;20.40;99.90;;;;;;5075656;28;20441;-72
2021/07/15 10:55:52;;;;;;;0.60;0.60;;;20.70;99.90;;;;;;5075295;28;20451;-72
2021/07/15 10:58:42;;;;;;;0.60;0.60;;;20.70;99.90;;;;;;5075593;28;20456;-72
2021/07/15 11:01:09;;;;;;;0.50;0.50;;;20.90;99.90;;;;;;5075244;28;20760;-71
2021/07/15 11:03:36;;;;;;;0.63;0.63;;;20.80;99.90;;;;;;5074927;28;20484;-72
2021/07/15 11:06:04;;;;;;;0.50;0.50;;;20.90;99.90;;;;;;5075255;28;20447;-72
2021/07/15 11:08:56;;;;;;;0.43;0.43;;;20.90;99.90;;;;;;5075168;28;20538;-72
2021/07/15 11:11:36;;;;;;;0.40;0.40;;;21.10;99.90;;;;;;5074726;28;20449;-72
2021/07/15 11:14:04;;;;;;;0.70;0.70;;;21.30;99.90;;;;;;5074734;28;20458;-71
2021/07/15 11:16:52;;;;;;;0.57;0.47;;;21.40;99.90;;;;;;5075143;28;20799;-72
2021/07/15 11:19:56;;;;;;;0.43;0.40;;;21.40;99.90;;;;;;5075126;28;20954;-71
2021/07/15 11:22:46;;;;;;;0.40;0.40;;;21.30;99.90;;;;;;5074630;28;20484;-72
2021/07/15 11:25:18;;;;;;;0.40;0.40;;;21.40;99.90;;;;;;5074890;28;20473;-72
2021/07/15 11:27:49;;;;;;;0.50;0.50;;;21.40;99.90;;;;;;5074506;28;20459;-72
2021/07/15 11:30:28;;;;;;;0.50;0.50;;;21.50;99.90;;;;;;5074200;28;21076;-71
2021/07/15 11:32:55;;;;;;;0.67;0.67;;;21.50;99.90;;;;;;5074747;28;20424;-72
2021/07/15 11:35:49;;;;;;;0.50;0.50;;;21.60;99.90;;;;;;5075025;28;20794;-71
2021/07/15 11:38:24;;;;;;;0.47;0.30;;;21.40;99.90;;;;;;5074873;28;20447;-71
2021/07/15 11:40:52;;;;;;;0.43;0.43;;;21.20;99.90;;;;;;5074293;28;20521;-71
2021/07/15 11:43:29;;;;;;;0.50;0.40;;;21.00;99.90;;;;;;5074448;28;20788;-72
2021/07/15 11:46:16;;;;;;;0.70;0.47;;;21.10;99.90;;;;;;5074378;28;20453;-71
2021/07/15 11:49:00;;;;;;;0.30;0.30;;;21.30;99.90;;;;;;5074616;28;20803;-71
2021/07/15 11:51:36;;;;;;;0.60;0.40;;;21.40;99.90;;;;;;5074229;28;20549;-71
2021/07/15 11:54:21;;;;;;;0.33;0.33;;;21.30;99.90;;;;;;5074453;28;20786;-72
2021/07/15 11:56:49;;;;;;;0.40;0.40;;;21.30;99.90;;;;;;5074466;28;20451;-71
2021/07/15 11:59:43;;;;;;;0.47;0.47;;;21.40;99.90;;;;;;5074199;28;20469;-71
2021/07/15 12:02:18;;;;;;;0.40;0.40;;;21.40;99.90;;;;;;5055190;28;20872;-71
2021/07/15 12:05:07;;;;;;;0.40;0.40;;;21.40;99.90;;;;;;5074334;28;20440;-72
2021/07/15 12:07:35;;;;;;;0.40;0.40;;;21.40;99.90;;;;;;5074436;28;20442;-71
2021/07/15 12:10:04;;;;;;;0.60;0.40;;;21.30;99.90;;;;;;5073725;28;20550;-71
2021/07/15 12:12:31;;;;;;;0.60;0.60;;;21.30;99.90;;;;;;5074085;28;20447;-72
2021/07/15 12:14:59;;;;;;;0.40;0.40;;;21.30;99.90;;;;;;5073843;28;20567;-71
2021/07/15 12:17:31;;;;;;;0.57;0.50;;;21.20;99.90;;;;;;5073990;28;20446;-71
2021/07/15 12:20:00;;;;;;;0.47;0.47;;;21.00;99.90;;;;;;5073675;28;20488;-71
2021/07/15 12:22:28;;;;;;;0.50;0.50;;;20.90;99.90;;;;;;5073855;28;20495;-71
2021/07/15 12:25:11;;;;;;;0.53;0.53;;;20.70;99.90;;;;;;5073917;28;20942;-71
2021/07/15 12:27:42;;;;;;;0.40;0.40;;;20.80;99.90;;;;;;5073912;28;20447;-72
2021/07/15 12:30:12;;;;;;;0.30;0.30;;;20.90;99.90;;;;;;5073202;28;20487;-71
2021/07/15 12:32:39;;;;;;;0.40;0.40;;;21.00;99.90;;;;;;5074206;28;20860;-72
2021/07/15 12:35:14;;;;;;;0.40;0.33;;;21.10;99.90;;;;;;5073573;28;20448;-72
2021/07/15 12:37:41;;;;;;;0.50;0.50;;;21.10;99.90;;;;;;5074010;28;20440;-72
2021/07/15 12:40:10;;;;;;;0.40;0.40;;;21.10;99.90;;;;;;5075851;28;20511;-71
2021/07/15 12:42:37;;;;;;;0.40;0.40;;;21.20;99.90;;;;;;5078098;28;20483;-71
2021/07/15 12:45:20;;;;;;;0.47;0.40;;;20.90;99.90;;;;;;5078167;28;20440;-71
2021/07/15 12:48:08;;;;;;;0.50;0.50;;;20.80;99.90;;;;;;5077886;28;20451;-71
2021/07/15 12:50:36;;;;;;;0.30;0.30;;;20.80;99.90;;;;;;5071145;28;20473;-71
2021/07/15 12:53:24;;;;;;;0.37;0.37;;;21.00;99.90;;;;;;5077673;28;20463;-72
2021/07/15 12:55:57;;;;;;;0.40;0.40;;;21.00;99.90;;;;;;5077951;28;20432;-72
2021/07/15 12:58:24;;;;;;;0.57;0.57;;;21.10;99.90;;;;;;5077884;28;20442;-72
2021/07/15 13:00:59;;;;;;;0.50;0.30;;;21.30;99.90;;;;;;5077571;28;20440;-71
2021/07/15 13:03:26;;;;;;;0.73;0.43;;;21.40;99.90;;;;;;5077915;28;20491;-72
2021/07/15 13:05:53;;;;;;;0.40;0.40;;;21.40;99.90;;;;;;5078031;28;20534;-71